KSSI/SSI METAR and TAF weather

Enter ICAO airport designator
Station Type Date Time Source
KSSI METAR 2022/12/10 02:53 UTC NOAA

KSSI 100253Z AUTO 04006KT 10SM OVC010 19/16 A3013 RMK AO2 SLP203 T01940161 51005


Station Type Date Time Source
KSSI Decoded METAR 2022/12/10 02:53 UTC NOAA

BRUNSWICK MC KINNON AIRPORT , GA, United States (KSSI) 31-09N 081-23W 6M
Dec 09, 2022 - 09:53 PM EST / 2022.12.10 0253 UTC
Wind: from the NE (040 degrees) at 7 MPH (6 KT):0
Visibility: 10 mile(s):0
Sky conditions: overcast
Temperature: 66.9 F (19.4 C)
Dew Point: 61.0 F (16.1 C)
Relative Humidity: 81%
Pressure (altimeter): 30.13 in. Hg (1020 hPa)
Pressure tendency: 0.01 inches (0.5 hPa) higher than three hours ago
ob: KSSI 100253Z AUTO 04006KT 10SM OVC010 19/16 A3013 RMK AO2 SLP203 T01940161 51005
cycle: 3

Station Type Date Time Source
KSSI TAF 2022/12/10 02:54 UTC NOAA

TAF
AMD KSSI 100152Z 1002/1024 05006KT 5SM BR OVC010
TEMPO 1002/1006 OVC007
FM101000 01009KT P6SM OVC005
FM101400 02012G18KT P6SM OVC008
FM102100 04010KT P6SM OVC005

Example: see airport list